createdAt,value
2018-07-05T00:00:51.603Z,4.30
2018-07-05T00:01:51.670Z,4.50
2018-07-05T00:02:51.568Z,4.40
2018-07-05T00:03:51.683Z,4.40
2018-07-05T00:04:51.530Z,4.20
2018-07-05T00:05:51.595Z,4.40
2018-07-05T00:06:51.504Z,4.30
2018-07-05T00:07:51.608Z,4.10
2018-07-05T00:08:51.461Z,4.20
2018-07-05T00:09:51.521Z,4.10
2018-07-05T00:10:51.422Z,4.10
2018-07-05T00:11:51.535Z,4.00
2018-07-05T00:12:51.382Z,4.50
2018-07-05T00:13:51.548Z,4.50
2018-07-05T00:14:51.356Z,4.30
2018-07-05T00:15:51.459Z,4.70
2018-07-05T00:16:51.307Z,4.20
2018-07-05T00:17:51.474Z,3.90
2018-07-05T00:18:51.274Z,4.00
2018-07-05T00:19:51.388Z,3.70
2018-07-05T00:20:51.239Z,3.80
2018-07-05T00:21:51.404Z,3.80
2018-07-05T00:22:51.200Z,4.00
2018-07-05T00:23:51.312Z,3.70
2018-07-05T00:24:51.161Z,4.00
2018-07-05T00:25:51.326Z,3.80
2018-07-05T00:26:51.127Z,3.80
2018-07-05T00:27:51.238Z,3.70
2018-07-05T00:28:51.087Z,4.00
2018-07-05T00:29:51.251Z,3.90
2018-07-05T00:30:51.054Z,3.60
2018-07-05T00:31:51.164Z,3.50
2018-07-05T00:32:51.012Z,3.80
2018-07-05T00:33:51.179Z,3.80
2018-07-05T00:34:50.977Z,3.70
2018-07-05T00:35:51.092Z,3.70
2018-07-05T00:36:50.942Z,4.00
2018-07-05T00:37:51.108Z,3.50
2018-07-05T00:38:50.904Z,3.60
2018-07-05T00:39:51.018Z,3.40
2018-07-05T00:40:50.866Z,3.20
2018-07-05T00:41:51.035Z,3.40
2018-07-05T00:42:50.828Z,3.20
2018-07-05T00:43:50.944Z,2.60
2018-07-05T00:44:50.791Z,3.10
2018-07-05T00:45:50.956Z,2.80
2018-07-05T00:46:50.760Z,3.10
2018-07-05T00:47:50.870Z,2.80
2018-07-05T00:48:50.717Z,2.90
2018-07-05T00:49:50.927Z,2.90
2018-07-05T00:50:50.684Z,3.10
2018-07-05T00:51:50.795Z,3.00
2018-07-05T00:52:50.640Z,3.00
2018-07-05T00:53:50.812Z,3.10
2018-07-05T00:54:50.609Z,3.10
2018-07-05T00:55:50.720Z,2.90
2018-07-05T00:56:50.574Z,3.30
2018-07-05T00:57:50.633Z,3.10
2018-07-05T00:58:50.527Z,3.10
2018-07-05T00:59:50.546Z,3.30
2018-07-05T01:00:50.491Z,3.20
2018-07-05T01:01:50.558Z,3.20
2018-07-05T01:02:50.457Z,3.20
2018-07-05T01:03:50.470Z,3.00
2018-07-05T01:04:50.417Z,3.20
2018-07-05T01:05:50.486Z,3.00
2018-07-05T01:06:50.378Z,3.00
2018-07-05T01:07:50.394Z,3.10
2018-07-05T01:08:50.343Z,3.10
2018-07-05T01:09:50.412Z,3.20
2018-07-05T01:10:50.303Z,3.40
2018-07-05T01:11:50.323Z,3.10
2018-07-05T01:12:50.264Z,3.60
2018-07-05T01:13:50.335Z,3.30
2018-07-05T01:14:50.229Z,3.40
2018-07-05T01:15:50.247Z,3.20
2018-07-05T01:16:50.188Z,3.30
2018-07-05T01:17:50.261Z,3.40
2018-07-05T01:18:50.152Z,3.20
2018-07-05T01:19:50.173Z,3.10
2018-07-05T01:20:50.114Z,3.10
2018-07-05T01:21:50.187Z,2.90
2018-07-05T01:22:50.077Z,2.90
2018-07-05T01:23:50.203Z,3.00
2018-07-05T01:24:50.038Z,3.20
2018-07-05T01:25:50.113Z,2.80
2018-07-05T01:26:50.004Z,3.30
2018-07-05T01:27:50.128Z,3.10
2018-07-05T01:28:49.961Z,3.00
2018-07-05T01:29:50.039Z,2.90
2018-07-05T01:30:49.927Z,2.80
2018-07-05T01:31:50.053Z,3.10
2018-07-05T01:32:49.889Z,2.90
2018-07-05T01:33:49.965Z,2.90
2018-07-05T01:34:49.851Z,3.20
2018-07-05T01:35:49.981Z,3.10
2018-07-05T01:36:49.813Z,2.90
2018-07-05T01:37:49.883Z,3.30
2018-07-05T01:38:49.772Z,3.00
2018-07-05T01:39:49.911Z,3.00
2018-07-05T01:40:49.736Z,2.90
2018-07-05T01:41:49.818Z,2.70
2018-07-05T01:42:49.703Z,2.80
2018-07-05T01:43:49.832Z,2.50
2018-07-05T01:44:49.662Z,2.80
2018-07-05T01:45:49.742Z,2.80
2018-07-05T01:46:49.624Z,2.60
2018-07-05T01:47:49.759Z,3.30
2018-07-05T01:48:49.588Z,2.80
2018-07-05T01:49:49.668Z,2.90
2018-07-05T01:50:49.549Z,2.70
2018-07-05T01:51:49.683Z,2.90
2018-07-05T01:52:49.512Z,2.70
2018-07-05T01:53:49.596Z,2.70
2018-07-05T01:54:49.475Z,2.60
2018-07-05T01:55:49.610Z,2.50
2018-07-05T01:56:49.434Z,3.00
2018-07-05T01:57:49.528Z,2.60
2018-07-05T01:58:49.407Z,2.60
2018-07-05T01:59:49.536Z,3.10
2018-07-05T02:00:49.359Z,2.90
2018-07-05T02:01:49.448Z,3.00
2018-07-05T02:02:49.321Z,2.80
2018-07-05T02:03:49.461Z,3.20
2018-07-05T02:04:49.283Z,3.00
2018-07-05T02:05:49.306Z,2.80
2018-07-05T02:06:49.246Z,3.00
2018-07-05T02:07:49.393Z,2.90
2018-07-05T02:08:49.209Z,3.20
2018-07-05T02:09:49.301Z,3.10
2018-07-05T02:10:49.170Z,3.30
2018-07-05T02:11:49.314Z,3.10
2018-07-05T02:12:49.130Z,3.40
2018-07-05T02:13:49.227Z,3.50
2018-07-05T02:14:49.095Z,3.30
2018-07-05T02:15:49.241Z,3.20
2018-07-05T02:16:49.055Z,3.50
2018-07-05T02:17:49.152Z,3.40
2018-07-05T02:18:49.017Z,3.50
2018-07-05T02:19:49.166Z,3.60
2018-07-05T02:20:48.979Z,3.50
2018-07-05T02:21:49.078Z,3.60
2018-07-05T02:22:48.941Z,3.20
2018-07-05T02:23:49.092Z,3.50
2018-07-05T02:24:48.903Z,3.70
2018-07-05T02:25:49.004Z,3.50
2018-07-05T02:26:48.869Z,3.90
2018-07-05T02:27:49.020Z,3.50
2018-07-05T02:28:48.827Z,4.10
2018-07-05T02:29:48.934Z,3.70
2018-07-05T02:30:48.791Z,3.80
2018-07-05T02:31:48.954Z,3.80
2018-07-05T02:32:48.750Z,4.00
2018-07-05T02:33:48.859Z,4.00
2018-07-05T02:34:48.712Z,3.80
2018-07-05T02:35:48.872Z,3.70
2018-07-05T02:36:48.676Z,3.90
2018-07-05T02:37:48.787Z,4.10
2018-07-05T02:38:48.635Z,4.10
2018-07-05T02:39:48.806Z,3.60
2018-07-05T02:40:48.600Z,3.60
2018-07-05T02:41:48.712Z,3.80
2018-07-05T02:42:48.562Z,4.10
2018-07-05T02:43:48.727Z,4.30
2018-07-05T02:44:48.523Z,4.00
2018-07-05T02:45:48.638Z,4.30
2018-07-05T02:46:48.496Z,4.10
2018-07-05T02:47:48.652Z,4.40
2018-07-05T02:48:48.444Z,4.60
2018-07-05T02:49:48.562Z,4.30
2018-07-05T02:50:48.405Z,4.60
2018-07-05T02:51:48.476Z,4.90
2018-07-05T02:52:48.369Z,4.70
2018-07-05T02:53:48.388Z,4.30
2018-07-05T02:54:48.330Z,4.80
2018-07-05T02:55:48.400Z,4.40
2018-07-05T02:56:48.290Z,4.70
2018-07-05T02:57:48.311Z,4.70
2018-07-05T02:58:48.253Z,4.90
2018-07-05T02:59:48.324Z,4.90
2018-07-05T03:00:48.213Z,4.80
2018-07-05T03:01:48.237Z,5.20
2018-07-05T03:02:48.178Z,5.20
2018-07-05T03:03:48.355Z,5.20
2018-07-05T03:04:48.138Z,4.90
2018-07-05T03:05:48.163Z,5.50
2018-07-05T03:06:48.098Z,5.20
2018-07-05T03:07:48.183Z,5.10
2018-07-05T03:08:48.063Z,5.00
2018-07-05T03:09:48.089Z,5.40
2018-07-05T03:10:48.022Z,5.10
2018-07-05T03:11:48.104Z,5.30
2018-07-05T03:12:47.995Z,4.50
2018-07-05T03:13:48.015Z,5.10
2018-07-05T03:14:47.944Z,5.30
2018-07-05T03:15:48.030Z,5.10
2018-07-05T03:16:47.906Z,5.40
2018-07-05T03:17:47.949Z,4.70
2018-07-05T03:18:47.869Z,5.20
2018-07-05T03:19:47.956Z,5.50
2018-07-05T03:20:47.828Z,5.10
2018-07-05T03:21:47.866Z,5.20
2018-07-05T03:22:47.790Z,5.40
2018-07-05T03:23:47.881Z,5.20
2018-07-05T03:24:47.752Z,5.30
2018-07-05T03:25:47.794Z,5.40
2018-07-05T03:26:47.715Z,5.00
2018-07-05T03:27:47.807Z,5.40
2018-07-05T03:28:47.675Z,5.30
2018-07-05T03:29:47.721Z,5.70
2018-07-05T03:30:47.637Z,5.80
2018-07-05T03:31:47.737Z,6.40
2018-07-05T03:32:47.596Z,5.90
2018-07-05T03:33:47.645Z,5.80
2018-07-05T03:34:47.559Z,5.60
2018-07-05T03:35:47.658Z,5.90
2018-07-05T03:36:47.519Z,5.00
2018-07-05T03:37:47.571Z,5.10
2018-07-05T03:38:47.480Z,5.30
2018-07-05T03:39:47.584Z,5.80
2018-07-05T03:40:47.440Z,5.40
2018-07-05T03:41:47.495Z,5.80
2018-07-05T03:42:47.402Z,5.80
2018-07-05T03:43:47.511Z,5.60
2018-07-05T03:44:47.363Z,5.50
2018-07-05T03:45:47.424Z,5.80
2018-07-05T03:46:47.324Z,6.30
2018-07-05T03:47:47.439Z,6.10
2018-07-05T03:48:47.291Z,5.80
2018-07-05T03:49:47.353Z,6.20
2018-07-05T03:50:47.248Z,5.80
2018-07-05T03:51:47.366Z,6.30
2018-07-05T03:52:47.208Z,6.10
2018-07-05T03:53:47.275Z,5.70
2018-07-05T03:54:47.172Z,5.80
2018-07-05T03:55:47.293Z,5.90
2018-07-05T03:56:47.133Z,5.70
2018-07-05T03:57:47.202Z,6.00
2018-07-05T03:58:47.091Z,6.50
2018-07-05T03:59:47.216Z,5.90
2018-07-05T04:00:47.055Z,5.80
2018-07-05T04:01:47.127Z,5.90
2018-07-05T04:02:47.014Z,6.20
2018-07-05T04:03:47.143Z,6.20
2018-07-05T04:04:46.974Z,6.30
2018-07-05T04:05:47.053Z,5.80
2018-07-05T04:06:46.939Z,6.50
2018-07-05T04:07:47.068Z,6.30
2018-07-05T04:08:46.898Z,6.00
2018-07-05T04:09:46.978Z,6.10
2018-07-05T04:10:46.861Z,5.50
2018-07-05T04:11:46.994Z,6.20
2018-07-05T04:12:46.815Z,6.30
2018-07-05T04:13:46.908Z,5.80
2018-07-05T04:14:46.781Z,5.40
2018-07-05T04:15:46.949Z,6.10
2018-07-05T04:16:46.740Z,5.90
2018-07-05T04:17:46.832Z,6.20
2018-07-05T04:18:46.699Z,5.70
2018-07-05T04:19:46.845Z,5.90
2018-07-05T04:20:46.662Z,6.10
2018-07-05T04:21:46.756Z,6.10
2018-07-05T04:22:46.622Z,6.30
2018-07-05T04:23:46.774Z,6.20
2018-07-05T04:24:46.582Z,5.90
2018-07-05T04:25:46.685Z,6.40
2018-07-05T04:26:46.545Z,6.50
2018-07-05T04:27:46.699Z,6.00
2018-07-05T04:28:46.504Z,5.90
2018-07-05T04:29:46.610Z,6.60
2018-07-05T04:30:46.466Z,6.50
2018-07-05T04:31:46.625Z,6.50
2018-07-05T04:32:46.427Z,6.40
2018-07-05T04:33:46.537Z,6.50
2018-07-05T04:34:46.387Z,6.70
2018-07-05T04:35:46.551Z,6.40
2018-07-05T04:36:46.355Z,6.60
2018-07-05T04:37:46.461Z,6.40
2018-07-05T04:38:46.307Z,6.40
2018-07-05T04:39:46.477Z,6.70
2018-07-05T04:40:46.268Z,6.40
2018-07-05T04:41:46.388Z,6.60
2018-07-05T04:42:46.230Z,7.10
2018-07-05T04:43:46.403Z,6.80
2018-07-05T04:44:46.192Z,6.60
2018-07-05T04:45:46.313Z,6.50
2018-07-05T04:46:46.158Z,6.90
2018-07-05T04:47:46.225Z,6.80
2018-07-05T04:48:46.116Z,7.20
2018-07-05T04:49:46.137Z,7.30
2018-07-05T04:50:46.078Z,7.40
2018-07-05T04:51:46.153Z,6.70
2018-07-05T04:52:46.035Z,7.40
2018-07-05T04:53:46.066Z,7.20
2018-07-05T04:54:46.000Z,7.00
2018-07-05T04:55:46.080Z,7.90
2018-07-05T04:56:45.959Z,7.20
2018-07-05T04:57:45.992Z,6.90
2018-07-05T04:58:45.921Z,7.50
2018-07-05T04:59:46.005Z,7.20
2018-07-05T05:00:45.885Z,7.20
2018-07-05T05:01:45.915Z,8.10
2018-07-05T05:02:45.840Z,7.80
2018-07-05T05:03:45.933Z,7.50
2018-07-05T05:04:45.803Z,7.50
2018-07-05T05:05:45.846Z,7.50
2018-07-05T05:06:45.763Z,8.20
2018-07-05T05:07:45.857Z,8.20
2018-07-05T05:08:45.742Z,8.00
2018-07-05T05:09:45.767Z,8.50
2018-07-05T05:10:45.682Z,8.70
2018-07-05T05:11:45.780Z,8.70
2018-07-05T05:12:45.643Z,8.30
2018-07-05T05:13:45.692Z,8.20
2018-07-05T05:14:45.604Z,8.80
2018-07-05T05:15:45.724Z,8.40
2018-07-05T05:16:45.565Z,8.80
2018-07-05T05:17:45.618Z,8.90
2018-07-05T05:18:45.532Z,8.50
2018-07-05T05:19:45.633Z,8.60
2018-07-05T05:20:45.486Z,8.70
2018-07-05T05:21:45.546Z,8.00
2018-07-05T05:22:45.450Z,8.80
2018-07-05T05:23:45.558Z,8.30
2018-07-05T05:24:45.412Z,8.60
2018-07-05T05:25:45.473Z,8.20
2018-07-05T05:26:45.371Z,7.90
2018-07-05T05:27:45.485Z,7.70
2018-07-05T05:28:45.334Z,8.20
2018-07-05T05:29:45.397Z,8.30
2018-07-05T05:30:45.295Z,7.60
2018-07-05T05:31:45.413Z,7.70
2018-07-05T05:32:45.254Z,7.50
2018-07-05T05:33:45.322Z,7.70
2018-07-05T05:34:45.219Z,7.50
2018-07-05T05:35:45.338Z,7.70
2018-07-05T05:36:45.179Z,7.60
2018-07-05T05:37:45.252Z,7.80
2018-07-05T05:38:45.141Z,7.30
2018-07-05T05:39:45.265Z,7.60
2018-07-05T05:40:45.100Z,7.50
2018-07-05T05:41:45.175Z,7.70
2018-07-05T05:42:45.063Z,7.60
2018-07-05T05:43:45.189Z,8.20
2018-07-05T05:44:45.023Z,8.30
2018-07-05T05:45:45.101Z,7.70
2018-07-05T05:46:44.989Z,8.20
2018-07-05T05:47:45.184Z,8.20
2018-07-05T05:48:44.945Z,8.30
2018-07-05T05:49:45.028Z,8.40
2018-07-05T05:50:44.910Z,8.50
2018-07-05T05:51:45.042Z,8.10
2018-07-05T05:52:44.869Z,7.90
2018-07-05T05:53:44.952Z,7.40
2018-07-05T05:54:44.835Z,8.20
2018-07-05T05:55:44.967Z,8.30
2018-07-05T05:56:44.794Z,8.20
2018-07-05T05:57:44.882Z,7.90
2018-07-05T05:58:44.757Z,8.70
2018-07-05T05:59:44.893Z,7.90
2018-07-05T06:00:44.717Z,7.80
2018-07-05T06:01:44.822Z,8.10
2018-07-05T06:02:44.682Z,8.20
2018-07-05T06:03:44.818Z,8.10
2018-07-05T06:04:44.643Z,8.00
2018-07-05T06:05:44.731Z,8.40
2018-07-05T06:06:44.603Z,8.40
2018-07-05T06:07:44.745Z,8.00
2018-07-05T06:08:44.570Z,7.90
2018-07-05T06:09:44.657Z,8.10
2018-07-05T06:10:44.527Z,8.20
2018-07-05T06:11:44.672Z,7.90
2018-07-05T06:12:44.492Z,7.70
2018-07-05T06:13:44.484Z,8.00
2018-07-05T06:14:44.443Z,8.00
2018-07-05T06:15:44.598Z,7.80
2018-07-05T06:16:44.412Z,8.30
2018-07-05T06:17:44.530Z,8.20
2018-07-05T06:18:44.391Z,8.20
2018-07-05T06:19:44.524Z,8.10
2018-07-05T06:20:44.335Z,7.80
2018-07-05T06:21:44.437Z,8.00
2018-07-05T06:22:44.299Z,8.10
2018-07-05T06:23:44.448Z,8.30
2018-07-05T06:24:44.257Z,8.10
2018-07-05T06:25:44.361Z,8.30
2018-07-05T06:26:44.223Z,8.10
2018-07-05T06:27:44.377Z,8.50
2018-07-05T06:28:44.183Z,8.50
2018-07-05T06:29:44.287Z,8.40
2018-07-05T06:30:44.149Z,8.60
2018-07-05T06:31:44.302Z,8.40
2018-07-05T06:32:44.108Z,8.10
2018-07-05T06:33:44.112Z,9.10
2018-07-05T06:34:44.136Z,9.10
2018-07-05T06:35:44.052Z,9.30
2018-07-05T06:36:44.135Z,8.70
2018-07-05T06:37:44.016Z,8.60
2018-07-05T06:38:44.045Z,8.30
2018-07-05T06:39:44.053Z,9.20
2018-07-05T06:40:43.958Z,9.40
2018-07-05T06:41:44.067Z,9.40
2018-07-05T06:42:43.931Z,9.30
2018-07-05T06:43:43.978Z,8.80
2018-07-05T06:44:43.883Z,8.90
2018-07-05T06:45:43.888Z,8.40
2018-07-05T06:46:43.848Z,9.50
2018-07-05T06:47:43.904Z,8.70
2018-07-05T06:48:43.811Z,8.30
2018-07-05T06:49:43.815Z,8.90
2018-07-05T06:50:43.773Z,8.30
2018-07-05T06:51:43.832Z,8.90
2018-07-05T06:52:43.736Z,9.10
2018-07-05T06:53:43.744Z,9.00
2018-07-05T06:54:43.701Z,8.70
2018-07-05T06:55:43.757Z,8.70
2018-07-05T06:56:43.662Z,8.60
2018-07-05T06:57:43.668Z,8.70
2018-07-05T06:58:43.626Z,8.70
2018-07-05T06:59:43.683Z,9.00
2018-07-05T07:00:43.589Z,9.00
2018-07-05T07:01:43.576Z,8.70
2018-07-05T07:02:43.555Z,8.40
2018-07-05T07:03:43.544Z,8.40
2018-07-05T07:04:43.515Z,8.90
2018-07-05T07:05:43.504Z,8.80
2018-07-05T07:06:43.481Z,8.40
2018-07-05T07:07:43.468Z,8.80
2018-07-05T07:08:43.447Z,8.60
2018-07-05T07:09:43.442Z,8.20
2018-07-05T07:10:43.409Z,8.30
2018-07-05T07:11:43.395Z,8.90
2018-07-05T07:12:43.377Z,8.40
2018-07-05T07:13:43.359Z,8.40
2018-07-05T07:14:43.339Z,9.30
2018-07-05T07:15:43.388Z,9.20
2018-07-05T07:16:43.300Z,8.50
2018-07-05T07:17:43.290Z,9.10
2018-07-05T07:18:43.265Z,7.70
2018-07-05T07:19:43.255Z,8.30
2018-07-05T07:20:43.230Z,9.10
2018-07-05T07:21:43.218Z,9.00
2018-07-05T07:22:43.195Z,8.70
2018-07-05T07:23:43.220Z,10.10
2018-07-05T07:24:43.164Z,8.80
2018-07-05T07:25:43.152Z,8.70
2018-07-05T07:26:43.127Z,8.80
2018-07-05T07:27:43.114Z,8.30
2018-07-05T07:28:43.089Z,8.30
2018-07-05T07:29:43.080Z,8.30
2018-07-05T07:30:43.057Z,8.00
2018-07-05T07:31:43.082Z,8.30
2018-07-05T07:32:43.023Z,7.90
2018-07-05T07:33:43.008Z,9.20
2018-07-05T07:34:42.987Z,9.50
2018-07-05T07:35:42.982Z,8.20
2018-07-05T07:36:42.953Z,8.60
2018-07-05T07:37:42.995Z,8.40
2018-07-05T07:38:42.921Z,8.60
2018-07-05T07:39:42.909Z,8.20
2018-07-05T07:40:42.885Z,8.50
2018-07-05T07:41:42.954Z,8.00
2018-07-05T07:42:42.895Z,8.90
2018-07-05T07:43:42.869Z,8.60
2018-07-05T07:44:42.816Z,8.90
2018-07-05T07:45:42.815Z,8.10
2018-07-05T07:46:42.784Z,8.00
2018-07-05T07:47:42.796Z,8.40
2018-07-05T07:48:42.751Z,8.30
2018-07-05T07:49:42.852Z,8.30
2018-07-05T07:50:42.717Z,8.30
2018-07-05T07:51:42.721Z,8.40
2018-07-05T07:52:42.683Z,8.60
2018-07-05T07:53:42.735Z,8.40
2018-07-05T07:54:42.652Z,7.80
2018-07-05T07:55:42.749Z,8.00
2018-07-05T07:56:42.618Z,8.20
2018-07-05T07:57:42.661Z,8.00
2018-07-05T07:58:42.590Z,8.10
2018-07-05T07:59:42.675Z,8.30
2018-07-05T08:00:42.549Z,7.90
2018-07-05T08:01:42.585Z,7.90
2018-07-05T08:02:42.519Z,8.00
2018-07-05T08:03:42.602Z,8.20
2018-07-05T08:04:42.485Z,8.80
2018-07-05T08:05:42.512Z,8.40
2018-07-05T08:06:42.452Z,8.20
2018-07-05T08:07:42.526Z,7.70
2018-07-05T08:08:42.418Z,7.90
2018-07-05T08:09:42.412Z,7.30
2018-07-05T08:10:42.386Z,7.50
2018-07-05T08:11:42.471Z,7.80
2018-07-05T08:12:42.353Z,7.70
2018-07-05T08:13:42.371Z,7.70
2018-07-05T08:14:42.329Z,7.80
2018-07-05T08:15:42.377Z,8.10
2018-07-05T08:16:42.291Z,7.70
2018-07-05T08:17:42.289Z,6.80
2018-07-05T08:18:42.258Z,7.10
2018-07-05T08:19:42.303Z,7.60
2018-07-05T08:20:42.224Z,7.10
2018-07-05T08:21:42.317Z,6.80
2018-07-05T08:22:42.191Z,6.70
2018-07-05T08:23:42.229Z,6.30
2018-07-05T08:24:42.157Z,6.30
2018-07-05T08:25:42.245Z,6.90
2018-07-05T08:26:42.135Z,7.00
2018-07-05T08:27:42.155Z,6.40
2018-07-05T08:28:42.115Z,6.80
2018-07-05T08:29:42.085Z,7.00
2018-07-05T08:30:42.065Z,7.30
2018-07-05T08:31:42.082Z,6.40
2018-07-05T08:32:42.036Z,6.30
2018-07-05T08:33:42.098Z,6.30
2018-07-05T08:34:42.000Z,6.70
2018-07-05T08:35:42.011Z,6.30
2018-07-05T08:36:41.969Z,6.30
2018-07-05T08:37:42.023Z,7.20
2018-07-05T08:38:41.970Z,6.30
2018-07-05T08:39:41.933Z,6.50
2018-07-05T08:40:41.909Z,6.80
2018-07-05T08:41:41.948Z,6.40
2018-07-05T08:42:41.877Z,6.20
2018-07-05T08:43:41.964Z,7.00
2018-07-05T08:44:41.862Z,6.90
2018-07-05T08:45:41.874Z,6.80
2018-07-05T08:46:41.817Z,6.40
2018-07-05T08:47:41.888Z,6.60
2018-07-05T08:48:41.788Z,6.50
2018-07-05T08:49:41.799Z,6.10
2018-07-05T08:50:41.754Z,6.40
2018-07-05T08:51:41.814Z,6.00
2018-07-05T08:52:41.724Z,5.30
2018-07-05T08:53:41.724Z,4.50
2018-07-05T08:54:41.719Z,4.90
2018-07-05T08:55:41.740Z,5.90
2018-07-05T08:56:41.666Z,5.20
2018-07-05T08:57:41.753Z,5.60
2018-07-05T08:58:41.641Z,5.00
2018-07-05T08:59:41.666Z,5.90
2018-07-05T09:00:41.618Z,5.70
2018-07-05T09:01:41.682Z,5.20
2018-07-05T09:02:41.572Z,4.60
2018-07-05T09:03:41.594Z,4.80
2018-07-05T09:04:41.545Z,4.90
2018-07-05T09:05:41.607Z,4.40
2018-07-05T09:06:41.517Z,5.60
2018-07-05T09:07:41.621Z,5.60
2018-07-05T09:08:41.490Z,4.90
2018-07-05T09:09:41.532Z,5.20
2018-07-05T09:10:41.458Z,5.70
2018-07-05T09:11:41.547Z,6.10
2018-07-05T09:12:41.422Z,5.70
2018-07-05T09:13:41.457Z,5.30
2018-07-05T09:14:41.397Z,5.90
2018-07-05T09:15:41.477Z,6.10
2018-07-05T09:16:41.372Z,5.00
2018-07-05T09:17:41.513Z,4.90
2018-07-05T09:18:41.342Z,5.20
2018-07-05T09:19:41.398Z,5.50
2018-07-05T09:20:41.314Z,4.90
2018-07-05T09:21:41.313Z,5.80
2018-07-05T09:22:41.281Z,5.70
2018-07-05T09:23:41.368Z,4.50
2018-07-05T09:24:41.252Z,4.70
2018-07-05T09:25:41.340Z,4.80
2018-07-05T09:26:41.240Z,4.40
2018-07-05T09:27:41.257Z,4.40
2018-07-05T09:28:41.198Z,5.00
2018-07-05T09:29:41.266Z,5.20
2018-07-05T09:30:41.169Z,5.40
2018-07-05T09:31:41.178Z,5.30
2018-07-05T09:32:41.140Z,4.90
2018-07-05T09:33:41.190Z,4.50
2018-07-05T09:34:41.112Z,4.70
2018-07-05T09:35:41.205Z,5.30
2018-07-05T09:36:41.081Z,5.40
2018-07-05T09:37:41.143Z,5.40
2018-07-05T09:38:41.055Z,5.70
2018-07-05T09:39:41.132Z,5.60
2018-07-05T09:40:41.026Z,5.50
2018-07-05T09:41:41.056Z,5.40
2018-07-05T09:42:41.002Z,5.50
2018-07-05T09:43:41.058Z,4.80
2018-07-05T09:44:40.972Z,4.80
2018-07-05T09:45:41.070Z,5.80
2018-07-05T09:46:40.944Z,5.30
2018-07-05T09:47:40.985Z,4.90
2018-07-05T09:48:40.919Z,5.30
2018-07-05T09:49:40.996Z,5.10
2018-07-05T09:50:40.888Z,5.70
2018-07-05T09:51:40.909Z,5.30
2018-07-05T09:52:40.892Z,4.90
2018-07-05T09:53:40.925Z,5.40
2018-07-05T09:54:40.839Z,5.20
2018-07-05T09:55:40.834Z,5.20
2018-07-05T09:56:40.812Z,5.00
2018-07-05T09:57:40.944Z,5.90
2018-07-05T09:58:41.773Z,4.60
2018-07-05T09:59:40.862Z,5.00
2018-07-05T10:00:40.753Z,5.00
2018-07-05T10:01:40.776Z,5.20
2018-07-05T10:02:40.730Z,5.30
2018-07-05T10:03:40.882Z,4.80
2018-07-05T10:04:40.795Z,4.90
2018-07-05T10:05:40.705Z,5.20
2018-07-05T10:06:40.707Z,4.70
2018-07-05T10:07:40.667Z,4.70
2018-07-05T10:08:40.723Z,4.50
2018-07-05T10:09:40.636Z,4.20
2018-07-05T10:10:40.736Z,3.90
2018-07-05T10:11:40.614Z,4.30
2018-07-05T10:12:40.650Z,4.10
2018-07-05T10:13:40.816Z,4.00
2018-07-05T10:14:40.664Z,4.60
2018-07-05T10:15:40.565Z,4.30
2018-07-05T10:16:40.573Z,4.10
2018-07-05T10:17:40.535Z,4.30
2018-07-05T10:18:40.590Z,4.70
2018-07-05T10:19:40.514Z,4.20
2018-07-05T10:20:40.606Z,4.80
2018-07-05T10:21:40.483Z,5.00
2018-07-05T10:22:40.514Z,4.20
2018-07-05T10:23:40.462Z,4.30
2018-07-05T10:24:40.530Z,4.10
2018-07-05T10:25:40.437Z,4.10
2018-07-05T10:26:40.445Z,4.10
2018-07-05T10:27:40.407Z,4.30
2018-07-05T10:28:40.459Z,3.90
2018-07-05T10:29:40.385Z,4.40
2018-07-05T10:30:40.478Z,4.40
2018-07-05T10:31:40.359Z,3.90
2018-07-05T10:32:40.389Z,4.00
2018-07-05T10:33:40.338Z,3.90
2018-07-05T10:34:40.397Z,4.50
2018-07-05T10:35:40.311Z,4.00
2018-07-05T10:36:40.410Z,4.20
2018-07-05T10:37:40.286Z,4.20
2018-07-05T10:38:40.321Z,4.00
2018-07-05T10:39:40.317Z,3.60
2018-07-05T10:40:40.327Z,4.00
2018-07-05T10:41:40.243Z,3.60
2018-07-05T10:42:40.247Z,4.00
2018-07-05T10:43:40.219Z,4.10
2018-07-05T10:44:40.263Z,3.40
2018-07-05T10:45:40.190Z,3.00
2018-07-05T10:46:40.274Z,3.20
2018-07-05T10:47:40.165Z,3.50
2018-07-05T10:48:40.189Z,3.50
2018-07-05T10:49:40.142Z,4.10
2018-07-05T10:50:40.205Z,3.30
2018-07-05T10:51:40.119Z,3.70
2018-07-05T10:52:40.219Z,3.30
2018-07-05T10:53:40.096Z,3.40
2018-07-05T10:54:40.129Z,3.80
2018-07-05T10:55:40.075Z,3.60
2018-07-05T10:56:40.142Z,4.00
2018-07-05T10:57:40.049Z,4.20
2018-07-05T10:58:40.055Z,4.60
2018-07-05T10:59:40.028Z,5.20
2018-07-05T11:00:40.070Z,5.00
2018-07-05T11:01:40.009Z,5.40
2018-07-05T11:02:40.081Z,4.20
2018-07-05T11:03:39.980Z,4.90
2018-07-05T11:04:40.003Z,5.20
2018-07-05T11:05:39.958Z,5.20
2018-07-05T11:06:40.013Z,3.90
2018-07-05T11:07:39.936Z,3.70
2018-07-05T11:08:40.026Z,4.20
2018-07-05T11:09:39.911Z,3.50
2018-07-05T11:10:39.939Z,3.90
2018-07-05T11:11:39.891Z,4.60
2018-07-05T11:12:39.951Z,5.10
2018-07-05T11:13:39.866Z,4.50
2018-07-05T11:14:39.990Z,4.30
2018-07-05T11:15:39.849Z,5.20
2018-07-05T11:16:39.879Z,4.50
2018-07-05T11:17:39.823Z,4.20
2018-07-05T11:18:39.888Z,5.40
2018-07-05T11:19:39.803Z,5.90
2018-07-05T11:20:39.903Z,5.30
2018-07-05T11:21:39.781Z,5.80
2018-07-05T11:22:39.817Z,5.20
2018-07-05T11:23:39.758Z,5.90
2018-07-05T11:24:39.895Z,4.90
2018-07-05T11:25:39.735Z,7.50
2018-07-05T11:26:39.742Z,6.70
2018-07-05T11:27:39.713Z,7.40
2018-07-05T11:28:39.754Z,6.10
2018-07-05T11:29:39.693Z,7.40
2018-07-05T11:30:39.768Z,8.00
2018-07-05T11:31:39.669Z,7.50
2018-07-05T11:32:39.681Z,7.10
2018-07-05T11:33:39.650Z,7.30
2018-07-05T11:34:39.695Z,6.70
2018-07-05T11:35:39.635Z,6.90
2018-07-05T11:36:39.709Z,6.10
2018-07-05T11:37:39.607Z,5.90
2018-07-05T11:38:39.620Z,5.70
2018-07-05T11:39:39.582Z,5.20
2018-07-05T11:40:39.636Z,5.70
2018-07-05T11:41:39.567Z,4.40
2018-07-05T11:42:39.657Z,5.60
2018-07-05T11:43:39.545Z,4.80
2018-07-05T11:44:39.560Z,5.60
2018-07-05T11:45:39.522Z,5.60
2018-07-05T11:46:39.580Z,4.60
2018-07-05T11:47:39.504Z,4.10
2018-07-05T11:48:39.590Z,5.60
2018-07-05T11:49:39.481Z,4.90
2018-07-05T11:50:39.502Z,4.80
2018-07-05T11:51:39.466Z,5.10
2018-07-05T11:52:39.516Z,5.60
2018-07-05T11:53:39.439Z,5.60
2018-07-05T11:54:39.531Z,4.70
2018-07-05T11:55:39.423Z,4.70
2018-07-05T11:56:39.442Z,4.30
2018-07-05T11:57:39.399Z,5.20
2018-07-05T11:58:39.459Z,4.20
2018-07-05T11:59:39.385Z,4.10
2018-07-05T12:00:39.470Z,4.10
2018-07-05T12:01:39.361Z,4.10
2018-07-05T12:02:39.381Z,5.20
2018-07-05T12:03:39.338Z,4.40
2018-07-05T12:04:39.396Z,4.40
2018-07-05T12:05:39.317Z,4.20
2018-07-05T12:06:39.410Z,3.90
2018-07-05T12:07:39.302Z,4.20
2018-07-05T12:08:39.325Z,5.30
2018-07-05T12:09:39.279Z,6.20
2018-07-05T12:10:39.336Z,5.50
2018-07-05T12:11:39.263Z,5.40
2018-07-05T12:12:39.350Z,4.30
2018-07-05T12:13:39.239Z,4.10
2018-07-05T12:14:39.264Z,4.80
2018-07-05T12:15:39.223Z,6.00
2018-07-05T12:16:39.277Z,4.50
2018-07-05T12:17:39.198Z,5.40
2018-07-05T12:18:39.291Z,6.20
2018-07-05T12:19:39.181Z,6.20
2018-07-05T12:20:39.205Z,6.20
2018-07-05T12:21:39.165Z,6.30
2018-07-05T12:22:39.217Z,5.80
2018-07-05T12:23:39.148Z,6.30
2018-07-05T12:24:39.235Z,6.50
2018-07-05T12:25:39.124Z,5.20
2018-07-05T12:26:39.143Z,5.40
2018-07-05T12:27:39.100Z,5.50
2018-07-05T12:28:39.159Z,6.00
2018-07-05T12:29:39.081Z,5.20
2018-07-05T12:30:39.170Z,3.90
2018-07-05T12:31:39.061Z,4.00
2018-07-05T12:32:39.083Z,3.70
2018-07-05T12:33:39.134Z,4.30
2018-07-05T12:34:39.103Z,4.40
2018-07-05T12:35:39.018Z,4.20
2018-07-05T12:36:39.117Z,4.50
2018-07-05T12:37:38.999Z,4.40
2018-07-05T12:38:39.025Z,4.60
2018-07-05T12:39:38.978Z,4.60
2018-07-05T12:40:39.039Z,3.70
2018-07-05T12:41:38.961Z,3.20
2018-07-05T12:42:39.053Z,2.70
2018-07-05T12:43:38.936Z,2.90
2018-07-05T12:44:38.966Z,3.00
2018-07-05T12:45:38.924Z,2.60
2018-07-05T12:46:38.977Z,2.40
2018-07-05T12:47:38.900Z,2.90
2018-07-05T12:48:38.995Z,3.00
2018-07-05T12:49:38.875Z,2.70
2018-07-05T12:50:38.900Z,2.50
2018-07-05T12:51:38.855Z,3.00
2018-07-05T12:52:38.923Z,2.70
2018-07-05T12:53:38.837Z,3.00
2018-07-05T12:54:38.931Z,3.30
2018-07-05T12:55:38.811Z,3.00
2018-07-05T12:56:38.844Z,3.50
2018-07-05T12:57:38.825Z,3.20
2018-07-05T12:58:38.848Z,2.80
2018-07-05T12:59:38.777Z,2.50
2018-07-05T13:00:38.772Z,3.60
2018-07-05T13:01:38.745Z,3.20
2018-07-05T13:02:38.786Z,3.50
2018-07-05T13:03:38.722Z,2.80
2018-07-05T13:04:38.798Z,3.00
2018-07-05T13:05:38.704Z,3.00
2018-07-05T13:06:38.716Z,3.20
2018-07-05T13:07:38.680Z,2.90
2018-07-05T13:08:38.725Z,2.70
2018-07-05T13:09:38.663Z,2.80
2018-07-05T13:10:38.738Z,2.80
2018-07-05T13:11:38.638Z,2.80
2018-07-05T13:12:38.653Z,2.80
2018-07-05T13:13:38.616Z,2.70
2018-07-05T13:14:38.666Z,3.20
2018-07-05T13:15:38.596Z,3.00
2018-07-05T13:16:38.682Z,2.80
2018-07-05T13:17:38.569Z,2.60
2018-07-05T13:18:38.600Z,2.50